createdAt,value
2022-08-18T06:04:07.669Z,17.30
2022-08-18T06:08:18.630Z,17.40
2022-08-18T06:12:31.165Z,17.50
2022-08-18T06:16:58.426Z,17.50
2022-08-18T06:21:36.872Z,17.60
2022-08-18T06:25:59.578Z,17.60
2022-08-18T06:30:14.371Z,17.60
2022-08-18T06:34:30.597Z,17.60
2022-08-18T06:38:56.752Z,17.60
2022-08-18T06:43:11.446Z,17.80
2022-08-18T06:47:34.035Z,17.80
2022-08-18T06:51:43.946Z,17.80
2022-08-18T06:55:54.797Z,17.90
2022-08-18T07:00:10.368Z,18.00
2022-08-18T07:04:40.199Z,18.00
2022-08-18T07:09:00.127Z,18.10
2022-08-18T07:13:30.155Z,18.10
2022-08-18T07:22:40.157Z,18.20
2022-08-18T07:27:14.110Z,18.20
2022-08-18T07:36:17.468Z,18.30
2022-08-18T07:40:39.358Z,18.30
2022-08-18T07:45:11.719Z,18.20
2022-08-18T07:49:29.846Z,18.20
2022-08-18T07:54:05.095Z,18.20
2022-08-18T08:03:27.761Z,18.20
2022-08-18T08:07:48.200Z,18.20
2022-08-18T08:12:02.287Z,18.30
2022-08-18T08:16:23.477Z,18.30
2022-08-18T08:20:42.733Z,18.40
2022-08-18T08:25:22.345Z,18.40
2022-08-18T08:30:18.746Z,18.40
2022-08-18T08:34:54.219Z,18.50
2022-08-18T08:39:24.936Z,18.60
2022-08-18T08:44:11.806Z,18.60
2022-08-18T08:48:52.588Z,18.60
2022-08-18T08:53:22.722Z,18.70
2022-08-18T08:57:54.083Z,18.80
2022-08-18T09:02:55.750Z,18.80
2022-08-18T09:07:25.876Z,18.80
2022-08-18T09:12:08.108Z,18.80
2022-08-18T09:16:35.336Z,18.90
2022-08-18T09:21:33.277Z,18.90
2022-08-18T09:26:05.967Z,19.00
2022-08-18T09:30:47.700Z,19.00
2022-08-18T09:35:29.267Z,19.20
2022-08-18T09:40:00.463Z,19.50
2022-08-18T09:45:24.680Z,19.70
2022-08-18T09:54:50.599Z,19.90
2022-08-18T10:03:44.739Z,20.30
2022-08-18T10:08:24.103Z,20.30
2022-08-18T10:12:53.656Z,20.40
2022-08-18T10:22:45.008Z,20.40
2022-08-18T10:27:11.319Z,20.40
2022-08-18T10:31:27.306Z,20.70
2022-08-18T10:36:00.439Z,20.90
2022-08-18T10:50:34.438Z,21.90
2022-08-18T11:01:00.861Z,22.20
2022-08-18T11:05:37.528Z,22.20
2022-08-18T11:10:27.769Z,21.90
2022-08-18T11:15:21.947Z,21.80
2022-08-18T11:19:50.781Z,21.70
2022-08-18T11:24:08.728Z,21.50
2022-08-18T11:33:23.073Z,21.70
2022-08-18T11:37:49.550Z,21.60
2022-08-18T11:42:46.630Z,21.60
2022-08-18T11:47:43.366Z,21.70
2022-08-18T11:52:09.829Z,21.80
2022-08-18T11:56:38.019Z,21.80
2022-08-18T12:01:15.318Z,21.80
2022-08-18T12:05:24.838Z,21.80
2022-08-18T12:14:35.126Z,21.80
2022-08-18T12:18:47.328Z,21.90
2022-08-18T12:23:44.459Z,22.10
2022-08-18T12:33:25.732Z,22.10
2022-08-18T12:58:13.968Z,22.10
2022-08-18T13:02:34.790Z,22.10
2022-08-18T13:06:59.978Z,22.20
2022-08-18T13:17:05.441Z,22.00
2022-08-18T13:21:58.588Z,22.00
2022-08-18T13:26:48.690Z,21.90
2022-08-18T13:35:44.662Z,22.90
2022-08-18T13:44:52.846Z,23.20
2022-08-18T13:49:18.380Z,23.10
2022-08-18T13:54:18.361Z,22.90
2022-08-18T13:58:53.958Z,22.80
2022-08-18T14:03:10.239Z,22.60
2022-08-18T14:07:27.441Z,22.40
2022-08-18T14:11:58.310Z,22.30
2022-08-18T14:16:18.691Z,22.40
2022-08-18T14:21:00.220Z,22.20
2022-08-18T14:25:31.386Z,22.20
2022-08-18T14:29:45.954Z,22.50
2022-08-18T14:33:59.718Z,22.60
2022-08-18T14:38:17.962Z,22.70
2022-08-18T14:42:41.436Z,22.70
2022-08-18T14:46:57.961Z,22.50
2022-08-18T14:51:08.715Z,22.30
2022-08-18T14:55:32.300Z,22.10
2022-08-18T14:59:43.808Z,22.00
2022-08-18T15:03:55.059Z,21.80
2022-08-18T15:08:05.517Z,21.70
2022-08-18T15:12:18.662Z,21.60
2022-08-18T15:16:32.235Z,21.60
2022-08-18T15:20:56.003Z,21.50
2022-08-18T15:25:24.554Z,21.50
2022-08-18T15:29:41.324Z,21.50
2022-08-18T15:33:51.378Z,21.60
2022-08-18T15:38:01.238Z,21.90
2022-08-18T15:47:05.141Z,22.00
2022-08-18T15:56:04.256Z,21.90
2022-08-18T16:01:20.833Z,22.30
2022-08-18T16:06:11.657Z,22.70
2022-08-18T16:10:22.876Z,22.80
2022-08-18T16:24:44.410Z,22.60
2022-08-18T16:29:05.399Z,22.20
2022-08-18T16:33:19.290Z,22.20
2022-08-18T16:37:30.864Z,22.20
2022-08-18T16:41:42.104Z,22.20
2022-08-18T16:46:09.932Z,22.20
2022-08-18T16:50:29.972Z,21.80
2022-08-18T16:54:45.515Z,21.60
2022-08-18T16:59:16.563Z,21.60
2022-08-18T17:03:43.653Z,21.70
2022-08-18T17:07:53.944Z,21.50
2022-08-18T17:12:03.464Z,21.50
2022-08-18T17:16:15.100Z,21.40
2022-08-18T17:20:24.345Z,21.60
2022-08-18T17:24:52.218Z,21.60
2022-08-18T17:29:26.268Z,21.30
2022-08-18T17:33:43.915Z,21.10
2022-08-18T17:38:02.877Z,21.00
2022-08-18T17:46:52.486Z,21.00
2022-08-18T17:51:44.554Z,21.00
2022-08-18T18:15:20.844Z,20.20
2022-08-18T18:20:00.177Z,20.10
2022-08-18T20:48:51.199Z,19.40
2022-08-18T20:58:26.297Z,19.40
